createdAt,value
2023-05-25T00:02:56.253Z,7.30
2023-05-25T00:07:58.133Z,8.07
2023-05-25T00:12:59.831Z,7.57
2023-05-25T00:18:01.540Z,6.85
2023-05-25T00:23:03.298Z,7.47
2023-05-25T00:28:04.979Z,7.75
2023-05-25T00:33:06.874Z,7.70
2023-05-25T00:38:16.698Z,7.45
2023-05-25T00:43:19.727Z,7.53
2023-05-25T00:48:23.042Z,7.70
2023-05-25T00:53:24.741Z,7.28
2023-05-25T00:58:31.015Z,7.40
2023-05-25T01:03:38.011Z,7.72
2023-05-25T01:08:44.563Z,7.38
2023-05-25T01:13:48.008Z,7.63
2023-05-25T01:18:52.824Z,7.45
2023-05-25T01:24:12.789Z,7.28
2023-05-25T01:29:16.679Z,8.02
2023-05-25T01:34:19.665Z,7.82
2023-05-25T01:39:22.773Z,7.90
2023-05-25T01:44:26.543Z,7.20
2023-05-25T01:49:41.909Z,8.15
2023-05-25T01:55:13.198Z,7.18
2023-05-25T02:00:16.137Z,8.13
2023-05-25T02:05:20.158Z,7.82
2023-05-25T02:10:21.893Z,7.63
2023-05-25T02:15:24.511Z,7.93
2023-05-25T02:20:28.157Z,7.78
2023-05-25T02:25:29.857Z,8.32
2023-05-25T02:30:31.567Z,8.55
2023-05-25T02:35:33.601Z,8.25
2023-05-25T02:40:36.182Z,8.25
2023-05-25T02:45:37.957Z,7.72
2023-05-25T02:50:40.463Z,8.27
2023-05-25T02:55:46.371Z,7.68
2023-05-25T03:00:54.662Z,8.05
2023-05-25T03:05:57.246Z,9.40
2023-05-25T03:10:59.039Z,8.85
2023-05-25T03:16:01.662Z,8.60
2023-05-25T03:21:04.068Z,8.50
2023-05-25T03:26:06.251Z,8.07
2023-05-25T03:31:08.616Z,9.07
2023-05-25T03:36:12.373Z,9.38
2023-05-25T03:41:14.216Z,8.52
2023-05-25T03:46:16.033Z,8.48
2023-05-25T03:51:18.552Z,8.38
2023-05-25T03:56:21.333Z,7.55
2023-05-25T04:01:26.344Z,8.38
2023-05-25T04:06:30.126Z,8.35
2023-05-25T04:11:32.197Z,9.27
2023-05-25T04:16:33.891Z,8.05
2023-05-25T04:21:36.878Z,8.20
2023-05-25T04:26:41.701Z,8.35
2023-05-25T04:31:45.764Z,7.25
2023-05-25T04:37:08.841Z,8.30
2023-05-25T04:42:12.871Z,7.20
2023-05-25T04:47:14.566Z,7.53
2023-05-25T04:52:16.339Z,6.80
2023-05-25T04:57:19.825Z,6.90
2023-05-25T05:02:22.203Z,6.95
2023-05-25T05:07:23.953Z,5.95
2023-05-25T05:12:25.931Z,6.70
2023-05-25T05:17:31.215Z,6.07
2023-05-25T05:22:33.711Z,5.82
2023-05-25T05:27:36.189Z,5.82
2023-05-25T05:32:46.721Z,6.60
2023-05-25T05:37:49.531Z,6.40
2023-05-25T05:42:51.206Z,5.55
2023-05-25T05:47:53.273Z,5.65
2023-05-25T05:52:56.126Z,5.65
2023-05-25T05:57:58.414Z,5.50
2023-05-25T06:03:01.118Z,5.20
2023-05-25T06:08:06.019Z,4.80
2023-05-25T06:13:11.803Z,5.63
2023-05-25T06:18:14.024Z,5.60
2023-05-25T06:23:15.881Z,4.93
2023-05-25T06:28:17.912Z,5.50
2023-05-25T06:33:19.662Z,5.20
2023-05-25T06:38:22.010Z,5.38
2023-05-25T06:43:23.706Z,4.93
2023-05-25T06:48:40.233Z,5.00
2023-05-25T06:53:44.545Z,5.72
2023-05-25T06:58:46.489Z,5.43
2023-05-25T07:03:48.315Z,4.60
2023-05-25T07:08:49.954Z,5.07
2023-05-25T07:13:51.635Z,5.25
2023-05-25T07:18:53.255Z,6.57
2023-05-25T07:23:55.772Z,4.47
2023-05-25T07:28:57.912Z,5.00
2023-05-25T07:33:59.564Z,5.22
2023-05-25T07:39:01.645Z,5.07
2023-05-25T07:44:03.292Z,5.82
2023-05-25T07:49:06.391Z,5.13
2023-05-25T07:54:08.036Z,5.32
2023-05-25T07:59:10.908Z,5.80
2023-05-25T08:04:12.984Z,4.90
2023-05-25T08:09:15.019Z,5.32
2023-05-25T08:14:16.959Z,5.15
2023-05-25T08:19:18.756Z,4.43
2023-05-25T08:24:20.385Z,5.30
2023-05-25T08:29:22.284Z,4.75
2023-05-25T08:34:23.947Z,5.07
2023-05-25T08:39:25.669Z,5.43
2023-05-25T08:44:29.124Z,5.20
2023-05-25T08:49:33.630Z,4.68
2023-05-25T08:54:36.959Z,5.32
2023-05-25T08:59:52.141Z,5.25
2023-05-25T09:04:54.936Z,4.88
2023-05-25T09:09:57.886Z,4.55
2023-05-25T09:14:59.808Z,4.65
2023-05-25T09:20:01.961Z,4.68
2023-05-25T09:25:10.891Z,4.32
2023-05-25T09:30:12.820Z,3.67
2023-05-25T09:35:15.507Z,3.30
2023-05-25T09:40:17.686Z,3.75
2023-05-25T09:45:19.585Z,3.33
2023-05-25T09:50:21.480Z,3.05
2023-05-25T09:55:23.171Z,3.20
2023-05-25T10:00:25.296Z,2.80
2023-05-25T10:05:27.290Z,4.25
2023-05-25T10:10:29.688Z,4.03
2023-05-25T10:15:31.899Z,4.50
2023-05-25T10:20:35.268Z,4.20
2023-05-25T10:25:44.473Z,4.70
2023-05-25T10:36:02.428Z,3.50
2023-05-25T10:41:11.904Z,4.78
2023-05-25T10:46:15.223Z,4.57
2023-05-25T10:51:19.822Z,4.82
2023-05-25T10:56:21.583Z,5.05
2023-05-25T11:01:23.627Z,5.30
2023-05-25T11:06:45.805Z,5.43
2023-05-25T11:11:47.433Z,4.65
2023-05-25T11:17:08.260Z,4.57
2023-05-25T11:22:14.132Z,4.78
2023-05-25T11:27:15.941Z,5.47
2023-05-25T11:32:17.791Z,5.20
2023-05-25T11:37:21.405Z,4.43
2023-05-25T11:42:24.821Z,4.50
2023-05-25T11:47:26.819Z,4.57
2023-05-25T11:52:28.916Z,5.03
2023-05-25T11:57:30.640Z,5.20
2023-05-25T12:02:38.649Z,4.53
2023-05-25T12:07:44.823Z,4.73
2023-05-25T12:12:51.765Z,4.10
2023-05-25T12:17:54.356Z,4.45
2023-05-25T12:22:57.815Z,4.38
2023-05-25T12:28:12.359Z,4.68
2023-05-25T12:33:15.605Z,3.80
2023-05-25T12:38:20.116Z,4.13
2023-05-25T12:43:21.825Z,3.95
2023-05-25T12:48:27.797Z,3.97
2023-05-25T12:53:31.232Z,3.40
2023-05-25T12:58:33.091Z,3.80
2023-05-25T13:03:35.033Z,3.55
2023-05-25T13:08:36.934Z,4.18
2023-05-25T13:13:38.582Z,3.38
2023-05-25T13:18:40.269Z,3.60
2023-05-25T13:23:41.942Z,3.28
2023-05-25T13:28:43.772Z,3.00
2023-05-25T13:33:45.550Z,4.22
2023-05-25T13:38:47.173Z,3.67
2023-05-25T13:43:48.959Z,3.38
2023-05-25T13:48:50.684Z,3.47
2023-05-25T13:53:53.595Z,3.42
2023-05-25T13:58:55.367Z,3.65
2023-05-25T14:03:58.303Z,3.20
2023-05-25T14:09:00.452Z,3.40
2023-05-25T14:14:02.891Z,3.22
2023-05-25T14:19:05.279Z,3.70
2023-05-25T14:24:06.985Z,3.30
2023-05-25T14:29:09.075Z,3.50
2023-05-25T14:34:11.468Z,4.10
2023-05-25T14:39:15.760Z,3.17
2023-05-25T14:44:18.852Z,3.63
2023-05-25T14:49:24.775Z,3.08
2023-05-25T14:54:26.819Z,3.90
2023-05-25T14:59:28.484Z,3.17
2023-05-25T15:04:31.596Z,3.67
2023-05-25T15:09:33.982Z,3.03
2023-05-25T15:14:39.988Z,3.30
2023-05-25T15:19:41.614Z,3.45
2023-05-25T15:24:43.293Z,3.33
2023-05-25T15:29:45.978Z,3.17
2023-05-25T15:34:47.604Z,3.50
2023-05-25T15:39:49.217Z,2.75
2023-05-25T15:44:50.852Z,3.15
2023-05-25T15:49:52.507Z,3.30
2023-05-25T15:54:54.163Z,3.47
2023-05-25T15:59:56.040Z,3.38
2023-05-25T16:04:57.819Z,3.10
2023-05-25T16:09:59.688Z,3.53
2023-05-25T16:15:01.384Z,2.95
2023-05-25T16:20:03.244Z,3.20
2023-05-25T16:25:05.288Z,3.30
2023-05-25T16:30:07.622Z,3.22
2023-05-25T16:35:09.516Z,3.20
2023-05-25T16:40:11.475Z,2.60
2023-05-25T16:45:13.150Z,2.78
2023-05-25T16:50:15.006Z,3.40
2023-05-25T16:55:16.860Z,3.00
2023-05-25T17:00:18.799Z,3.13
2023-05-25T17:05:20.510Z,3.60
2023-05-25T17:10:22.268Z,3.33
2023-05-25T17:15:23.953Z,2.67
2023-05-25T17:20:25.678Z,2.70
2023-05-25T17:25:28.214Z,3.40
2023-05-25T17:30:30.752Z,3.10
2023-05-25T17:35:32.395Z,3.83
2023-05-25T17:40:34.199Z,3.70
2023-05-25T17:45:35.902Z,2.83
2023-05-25T17:50:37.626Z,3.05
2023-05-25T17:55:39.265Z,3.90
2023-05-25T18:00:41.020Z,3.47
2023-05-25T18:05:43.292Z,3.88
2023-05-25T18:10:47.114Z,4.10
2023-05-25T18:15:48.810Z,6.13
2023-05-25T18:20:50.996Z,5.82
2023-05-25T18:25:53.193Z,5.05
2023-05-25T18:30:54.905Z,6.10
2023-05-25T18:35:57.969Z,6.70
2023-05-25T18:40:59.673Z,7.00
2023-05-25T18:46:01.328Z,6.90
2023-05-25T18:51:03.274Z,7.97
2023-05-25T18:56:05.074Z,5.25
2023-05-25T19:01:06.816Z,5.10
2023-05-25T19:06:08.500Z,6.05
2023-05-25T19:11:10.135Z,7.30
2023-05-25T19:16:12.157Z,5.97
2023-05-25T19:21:13.925Z,5.45
2023-05-25T19:26:16.427Z,5.70
2023-05-25T19:31:18.127Z,4.80
2023-05-25T19:36:19.730Z,5.15
2023-05-25T19:41:21.630Z,5.35
2023-05-25T19:46:23.319Z,5.30
2023-05-25T19:51:25.260Z,5.72
2023-05-25T19:56:27.627Z,4.93
2023-05-25T20:01:29.408Z,4.93
2023-05-25T20:06:31.490Z,5.15
2023-05-25T20:11:33.155Z,6.65
2023-05-25T20:16:35.000Z,7.13
2023-05-25T20:21:37.137Z,7.28
2023-05-25T20:26:39.237Z,6.72
2023-05-25T20:31:41.118Z,6.32
2023-05-25T20:36:42.812Z,7.68
2023-05-25T20:41:44.473Z,7.13
2023-05-25T20:46:46.093Z,7.32
2023-05-25T20:51:50.598Z,7.57
2023-05-25T20:56:52.323Z,6.95
2023-05-25T21:01:54.226Z,7.65
2023-05-25T21:06:55.988Z,6.72
2023-05-25T21:11:57.654Z,6.10
2023-05-25T21:16:59.318Z,6.78
2023-05-25T21:22:01.232Z,5.15
2023-05-25T21:27:03.400Z,6.60
2023-05-25T21:32:05.262Z,6.30
2023-05-25T21:37:06.906Z,7.15
2023-05-25T21:42:09.756Z,7.53
2023-05-25T21:47:11.620Z,9.32
2023-05-25T21:52:13.385Z,8.68
2023-05-25T21:57:15.327Z,10.25
2023-05-25T22:02:17.159Z,9.50
2023-05-25T22:07:18.874Z,11.05
2023-05-25T22:12:20.504Z,9.25
2023-05-25T22:17:22.185Z,10.30
2023-05-25T22:22:23.952Z,10.43
2023-05-25T22:27:26.343Z,9.45
2023-05-25T22:32:28.036Z,9.57
2023-05-25T22:37:29.731Z,10.45
2023-05-25T22:42:31.384Z,10.25
2023-05-25T22:47:33.177Z,9.85
2023-05-25T22:52:34.795Z,10.07
2023-05-25T22:57:36.887Z,9.15
2023-05-25T23:02:38.530Z,10.38
2023-05-25T23:07:40.278Z,12.02
2023-05-25T23:12:42.033Z,11.13
2023-05-25T23:17:43.658Z,11.30
2023-05-25T23:22:45.959Z,11.43
2023-05-25T23:27:47.766Z,13.32
2023-05-25T23:32:49.936Z,12.48
2023-05-25T23:37:52.148Z,12.63
2023-05-25T23:42:53.888Z,13.27
2023-05-25T23:47:55.690Z,14.27
2023-05-25T23:52:57.406Z,13.32
2023-05-25T23:57:59.059Z,16.35
